Rio Grande, Ohio
Current Conditions -  °F | °C
As of 7:35 PM on Monday 24 Nov 2014 (Local Time) from K3I2 Reporting Station
Clear Clear  
Wind Chill: 10°   Ceiling: Unl
Heat Index: 10°   Visibility: 10mi
Dew Point:   Wind: 6mph
Humidity: 66%   Direction: 280°W
Pressure: 29.83"   Gusts: NA
Location:  38.88°N, 82.38°W
Report Text: K3I2 250035Z AUTO 28005KT 10SM CLR 10/04 A2983 RMK AO2
Loading
Personal Weather Stations






























Interactive Weather Map New forecast layout! Learn more

10-Day Weather Forecast

Advertisements
Track Severe Weather on mobile